sensor_id;sensor_type;location;lat;lon;timestamp;temperature;humidity
23715;DHT22;12036;50.858;4.472;2023-11-19T00:00:30;13.70;99.90
23715;DHT22;12036;50.858;4.472;2023-11-19T00:02:56;13.70;99.90
23715;DHT22;12036;50.858;4.472;2023-11-19T00:05:22;13.80;99.90
23715;DHT22;12036;50.858;4.472;2023-11-19T00:07:47;13.80;99.90
23715;DHT22;12036;50.858;4.472;2023-11-19T00:10:14;13.80;99.90
23715;DHT22;12036;50.858;4.472;2023-11-19T00:12:45;13.70;99.90
23715;DHT22;12036;50.858;4.472;2023-11-19T00:15:12;13.70;99.90
23715;DHT22;12036;50.858;4.472;2023-11-19T00:17:38;13.70;99.90
23715;DHT22;12036;50.858;4.472;2023-11-19T00:20:06;13.70;99.90
23715;DHT22;12036;50.858;4.472;2023-11-19T00:22:33;13.70;99.90
23715;DHT22;12036;50.858;4.472;2023-11-19T00:24:58;13.70;99.90
23715;DHT22;12036;50.858;4.472;2023-11-19T00:27:25;13.70;99.90
23715;DHT22;12036;50.858;4.472;2023-11-19T00:29:51;13.80;99.90
23715;DHT22;12036;50.858;4.472;2023-11-19T00:32:17;13.80;99.90
23715;DHT22;12036;50.858;4.472;2023-11-19T00:34:45;13.80;99.90
23715;DHT22;12036;50.858;4.472;2023-11-19T00:37:13;13.80;99.90
23715;DHT22;12036;50.858;4.472;2023-11-19T00:39:39;13.80;99.90
23715;DHT22;12036;50.858;4.472;2023-11-19T00:42:05;13.80;99.90
23715;DHT22;12036;50.858;4.472;2023-11-19T00:44:31;13.80;99.90
23715;DHT22;12036;50.858;4.472;2023-11-19T00:46:56;13.80;99.90
23715;DHT22;12036;50.858;4.472;2023-11-19T00:49:22;13.80;99.90
23715;DHT22;12036;50.858;4.472;2023-11-19T00:51:48;13.70;99.90
23715;DHT22;12036;50.858;4.472;2023-11-19T00:54:14;13.80;99.90
23715;DHT22;12036;50.858;4.472;2023-11-19T00:56:40;13.70;99.90
23715;DHT22;12036;50.858;4.472;2023-11-19T00:59:05;13.70;99.90
23715;DHT22;12036;50.858;4.472;2023-11-19T01:01:31;13.70;99.90
23715;DHT22;12036;50.858;4.472;2023-11-19T01:03:56;13.70;99.90
23715;DHT22;12036;50.858;4.472;2023-11-19T01:06:31;13.70;99.90
23715;DHT22;12036;50.858;4.472;2023-11-19T01:08:57;13.70;99.90
23715;DHT22;12036;50.858;4.472;2023-11-19T01:11:24;13.70;99.90
23715;DHT22;12036;50.858;4.472;2023-11-19T01:13:50;13.70;99.90
23715;DHT22;12036;50.858;4.472;2023-11-19T01:16:16;13.70;99.90
23715;DHT22;12036;50.858;4.472;2023-11-19T01:18:42;13.70;99.90
23715;DHT22;12036;50.858;4.472;2023-11-19T01:21:08;13.70;99.90
23715;DHT22;12036;50.858;4.472;2023-11-19T01:23:34;13.70;99.90
23715;DHT22;12036;50.858;4.472;2023-11-19T01:26:00;13.70;99.90
23715;DHT22;12036;50.858;4.472;2023-11-19T01:28:26;13.70;99.90
23715;DHT22;12036;50.858;4.472;2023-11-19T01:30:51;13.70;99.90
23715;DHT22;12036;50.858;4.472;2023-11-19T01:33:17;13.60;99.90
23715;DHT22;12036;50.858;4.472;2023-11-19T01:35:43;13.60;99.90
23715;DHT22;12036;50.858;4.472;2023-11-19T01:38:09;13.60;99.90
23715;DHT22;12036;50.858;4.472;2023-11-19T01:40:35;13.70;99.90
23715;DHT22;12036;50.858;4.472;2023-11-19T01:43:02;13.60;99.90
23715;DHT22;12036;50.858;4.472;2023-11-19T01:45:29;13.60;99.90
23715;DHT22;12036;50.858;4.472;2023-11-19T01:47:59;13.50;99.90
23715;DHT22;12036;50.858;4.472;2023-11-19T01:50:25;13.50;99.90
23715;DHT22;12036;50.858;4.472;2023-11-19T01:52:55;13.40;99.90
23715;DHT22;12036;50.858;4.472;2023-11-19T01:55:24;13.50;99.90
23715;DHT22;12036;50.858;4.472;2023-11-19T01:57:51;13.50;99.90
23715;DHT22;12036;50.858;4.472;2023-11-19T02:00:18;13.40;99.90
23715;DHT22;12036;50.858;4.472;2023-11-19T02:02:46;13.40;99.90
23715;DHT22;12036;50.858;4.472;2023-11-19T02:05:12;13.40;99.90
23715;DHT22;12036;50.858;4.472;2023-11-19T02:07:38;13.40;99.90
23715;DHT22;12036;50.858;4.472;2023-11-19T02:10:05;13.40;99.90
23715;DHT22;12036;50.858;4.472;2023-11-19T02:12:31;13.40;99.90
23715;DHT22;12036;50.858;4.472;2023-11-19T02:15:01;13.30;99.90
23715;DHT22;12036;50.858;4.472;2023-11-19T02:17:29;13.30;99.90
23715;DHT22;12036;50.858;4.472;2023-11-19T02:19:57;13.20;99.90
23715;DHT22;12036;50.858;4.472;2023-11-19T02:22:22;13.20;99.90
23715;DHT22;12036;50.858;4.472;2023-11-19T02:24:51;13.20;99.90
23715;DHT22;12036;50.858;4.472;2023-11-19T02:27:23;13.10;99.90
23715;DHT22;12036;50.858;4.472;2023-11-19T02:29:51;13.10;99.90
23715;DHT22;12036;50.858;4.472;2023-11-19T02:32:17;13.20;99.90
23715;DHT22;12036;50.858;4.472;2023-11-19T02:34:43;13.10;99.90
23715;DHT22;12036;50.858;4.472;2023-11-19T02:37:08;13.20;99.90
23715;DHT22;12036;50.858;4.472;2023-11-19T02:39:35;13.10;99.90
23715;DHT22;12036;50.858;4.472;2023-11-19T02:42:02;13.20;99.90
23715;DHT22;12036;50.858;4.472;2023-11-19T02:44:27;13.20;99.90
23715;DHT22;12036;50.858;4.472;2023-11-19T02:46:55;13.20;99.90
23715;DHT22;12036;50.858;4.472;2023-11-19T02:49:24;13.20;99.90
23715;DHT22;12036;50.858;4.472;2023-11-19T02:51:50;13.10;99.90
23715;DHT22;12036;50.858;4.472;2023-11-19T02:54:16;13.20;99.90
23715;DHT22;12036;50.858;4.472;2023-11-19T02:56:44;13.30;99.90
23715;DHT22;12036;50.858;4.472;2023-11-19T02:59:13;13.30;99.90
23715;DHT22;12036;50.858;4.472;2023-11-19T03:01:52;13.30;99.90
23715;DHT22;12036;50.858;4.472;2023-11-19T03:04:22;13.20;99.90
23715;DHT22;12036;50.858;4.472;2023-11-19T03:06:48;13.20;99.90
23715;DHT22;12036;50.858;4.472;2023-11-19T03:09:14;13.20;99.90
23715;DHT22;12036;50.858;4.472;2023-11-19T03:11:40;13.20;99.90
23715;DHT22;12036;50.858;4.472;2023-11-19T03:14:05;13.20;99.90
23715;DHT22;12036;50.858;4.472;2023-11-19T03:16:31;13.10;99.90
23715;DHT22;12036;50.858;4.472;2023-11-19T03:18:57;13.20;99.90
23715;DHT22;12036;50.858;4.472;2023-11-19T03:21:29;13.20;99.90
23715;DHT22;12036;50.858;4.472;2023-11-19T03:23:58;13.20;99.90
23715;DHT22;12036;50.858;4.472;2023-11-19T03:26:27;13.10;99.90
23715;DHT22;12036;50.858;4.472;2023-11-19T03:28:53;13.00;99.90
23715;DHT22;12036;50.858;4.472;2023-11-19T03:31:19;13.00;99.90
23715;DHT22;12036;50.858;4.472;2023-11-19T03:33:45;13.00;99.90
23715;DHT22;12036;50.858;4.472;2023-11-19T03:36:12;13.00;99.90
23715;DHT22;12036;50.858;4.472;2023-11-19T03:38:38;12.90;99.90
23715;DHT22;12036;50.858;4.472;2023-11-19T03:41:11;12.80;99.90
23715;DHT22;12036;50.858;4.472;2023-11-19T03:43:37;12.80;99.90
23715;DHT22;12036;50.858;4.472;2023-11-19T03:46:02;12.80;99.90
23715;DHT22;12036;50.858;4.472;2023-11-19T03:48:30;12.70;99.90
23715;DHT22;12036;50.858;4.472;2023-11-19T03:50:56;12.70;99.90
23715;DHT22;12036;50.858;4.472;2023-11-19T03:53:22;12.70;99.90
23715;DHT22;12036;50.858;4.472;2023-11-19T03:55:49;12.70;99.90
23715;DHT22;12036;50.858;4.472;2023-11-19T03:58:15;12.70;99.90
23715;DHT22;12036;50.858;4.472;2023-11-19T04:00:41;12.60;99.90
23715;DHT22;12036;50.858;4.472;2023-11-19T04:03:06;12.60;99.90
23715;DHT22;12036;50.858;4.472;2023-11-19T04:05:32;12.60;99.90
23715;DHT22;12036;50.858;4.472;2023-11-19T04:07:57;12.60;99.90
23715;DHT22;12036;50.858;4.472;2023-11-19T04:10:23;12.70;99.90
23715;DHT22;12036;50.858;4.472;2023-11-19T04:12:49;12.70;99.90
23715;DHT22;12036;50.858;4.472;2023-11-19T04:15:15;12.60;99.90
23715;DHT22;12036;50.858;4.472;2023-11-19T04:17:41;12.60;99.90
23715;DHT22;12036;50.858;4.472;2023-11-19T04:20:07;12.60;99.90
23715;DHT22;12036;50.858;4.472;2023-11-19T04:22:36;12.60;99.90
23715;DHT22;12036;50.858;4.472;2023-11-19T04:25:02;12.70;99.90
23715;DHT22;12036;50.858;4.472;2023-11-19T04:27:27;12.70;99.90
23715;DHT22;12036;50.858;4.472;2023-11-19T04:29:53;12.60;99.90
23715;DHT22;12036;50.858;4.472;2023-11-19T04:32:18;12.60;99.90
23715;DHT22;12036;50.858;4.472;2023-11-19T04:34:44;12.60;99.90
23715;DHT22;12036;50.858;4.472;2023-11-19T04:37:10;12.70;99.90
23715;DHT22;12036;50.858;4.472;2023-11-19T04:39:36;12.70;99.90
23715;DHT22;12036;50.858;4.472;2023-11-19T04:42:03;12.60;99.90
23715;DHT22;12036;50.858;4.472;2023-11-19T04:44:30;12.70;99.90
23715;DHT22;12036;50.858;4.472;2023-11-19T04:46:56;12.70;99.90
23715;DHT22;12036;50.858;4.472;2023-11-19T04:49:21;12.60;99.90
23715;DHT22;12036;50.858;4.472;2023-11-19T04:51:47;12.60;99.90
23715;DHT22;12036;50.858;4.472;2023-11-19T04:54:13;12.50;99.90
23715;DHT22;12036;50.858;4.472;2023-11-19T04:56:39;12.50;99.90
23715;DHT22;12036;50.858;4.472;2023-11-19T04:59:05;12.50;99.90
23715;DHT22;12036;50.858;4.472;2023-11-19T05:01:34;12.40;99.90
23715;DHT22;12036;50.858;4.472;2023-11-19T05:04:00;12.40;99.90
23715;DHT22;12036;50.858;4.472;2023-11-19T05:06:27;12.40;99.90
23715;DHT22;12036;50.858;4.472;2023-11-19T05:08:55;12.40;99.90
23715;DHT22;12036;50.858;4.472;2023-11-19T05:11:20;12.50;99.90
23715;DHT22;12036;50.858;4.472;2023-11-19T05:13:46;12.50;99.90
23715;DHT22;12036;50.858;4.472;2023-11-19T05:16:12;12.50;99.90
23715;DHT22;12036;50.858;4.472;2023-11-19T05:18:40;12.50;99.90
23715;DHT22;12036;50.858;4.472;2023-11-19T05:21:06;12.40;99.90
23715;DHT22;12036;50.858;4.472;2023-11-19T05:23:32;12.40;99.90
23715;DHT22;12036;50.858;4.472;2023-11-19T05:26:00;12.40;99.90
23715;DHT22;12036;50.858;4.472;2023-11-19T05:28:26;12.30;99.90
23715;DHT22;12036;50.858;4.472;2023-11-19T05:30:51;12.30;99.90
23715;DHT22;12036;50.858;4.472;2023-11-19T05:33:17;12.20;99.90
23715;DHT22;12036;50.858;4.472;2023-11-19T05:35:42;12.00;99.90
23715;DHT22;12036;50.858;4.472;2023-11-19T05:38:08;12.10;99.90
23715;DHT22;12036;50.858;4.472;2023-11-19T05:40:35;12.10;99.90
23715;DHT22;12036;50.858;4.472;2023-11-19T05:43:01;12.10;99.90
23715;DHT22;12036;50.858;4.472;2023-11-19T05:45:26;12.20;99.90
23715;DHT22;12036;50.858;4.472;2023-11-19T05:47:52;12.30;99.90
23715;DHT22;12036;50.858;4.472;2023-11-19T05:50:18;12.20;99.90
23715;DHT22;12036;50.858;4.472;2023-11-19T05:52:44;12.30;99.90
23715;DHT22;12036;50.858;4.472;2023-11-19T05:55:09;12.20;99.90
23715;DHT22;12036;50.858;4.472;2023-11-19T05:57:39;12.20;99.90
23715;DHT22;12036;50.858;4.472;2023-11-19T06:00:06;12.20;99.90
23715;DHT22;12036;50.858;4.472;2023-11-19T06:02:33;12.20;99.90
23715;DHT22;12036;50.858;4.472;2023-11-19T06:04:59;12.10;99.90
23715;DHT22;12036;50.858;4.472;2023-11-19T06:07:25;12.10;99.90
23715;DHT22;12036;50.858;4.472;2023-11-19T06:09:51;12.10;99.90
23715;DHT22;12036;50.858;4.472;2023-11-19T06:12:17;12.00;99.90
23715;DHT22;12036;50.858;4.472;2023-11-19T06:14:43;12.00;99.90
23715;DHT22;12036;50.858;4.472;2023-11-19T06:17:08;11.90;99.90
23715;DHT22;12036;50.858;4.472;2023-11-19T06:19:36;12.00;99.90
23715;DHT22;12036;50.858;4.472;2023-11-19T06:22:03;12.00;99.90
23715;DHT22;12036;50.858;4.472;2023-11-19T06:24:29;11.90;99.90
23715;DHT22;12036;50.858;4.472;2023-11-19T06:26:55;11.80;99.90
23715;DHT22;12036;50.858;4.472;2023-11-19T06:29:21;11.80;99.90
23715;DHT22;12036;50.858;4.472;2023-11-19T06:31:46;11.80;99.90
23715;DHT22;12036;50.858;4.472;2023-11-19T06:34:14;11.70;99.90
23715;DHT22;12036;50.858;4.472;2023-11-19T06:36:40;11.80;99.90
23715;DHT22;12036;50.858;4.472;2023-11-19T06:39:06;11.70;99.90
23715;DHT22;12036;50.858;4.472;2023-11-19T06:41:32;11.80;99.90
23715;DHT22;12036;50.858;4.472;2023-11-19T06:43:57;11.70;99.90
23715;DHT22;12036;50.858;4.472;2023-11-19T06:46:23;11.70;99.90
23715;DHT22;12036;50.858;4.472;2023-11-19T06:48:48;11.70;99.90
23715;DHT22;12036;50.858;4.472;2023-11-19T06:51:14;11.70;99.90
23715;DHT22;12036;50.858;4.472;2023-11-19T06:53:40;11.70;99.90
23715;DHT22;12036;50.858;4.472;2023-11-19T06:56:22;11.60;99.90
23715;DHT22;12036;50.858;4.472;2023-11-19T06:58:48;11.70;99.90
23715;DHT22;12036;50.858;4.472;2023-11-19T07:01:17;11.60;99.90
23715;DHT22;12036;50.858;4.472;2023-11-19T07:03:45;11.70;99.90
23715;DHT22;12036;50.858;4.472;2023-11-19T07:06:11;11.70;99.90
23715;DHT22;12036;50.858;4.472;2023-11-19T07:08:38;11.70;99.90
23715;DHT22;12036;50.858;4.472;2023-11-19T07:11:04;11.70;99.90
23715;DHT22;12036;50.858;4.472;2023-11-19T07:13:30;11.70;99.90
23715;DHT22;12036;50.858;4.472;2023-11-19T07:15:58;11.70;99.90
23715;DHT22;12036;50.858;4.472;2023-11-19T07:18:25;11.60;99.90
23715;DHT22;12036;50.858;4.472;2023-11-19T07:20:51;11.60;99.90
23715;DHT22;12036;50.858;4.472;2023-11-19T07:23:16;11.60;99.90
23715;DHT22;12036;50.858;4.472;2023-11-19T07:25:45;11.70;99.90
23715;DHT22;12036;50.858;4.472;2023-11-19T07:28:13;11.70;99.90
23715;DHT22;12036;50.858;4.472;2023-11-19T07:30:39;11.60;99.90
23715;DHT22;12036;50.858;4.472;2023-11-19T07:33:05;11.60;99.90
23715;DHT22;12036;50.858;4.472;2023-11-19T07:35:31;11.80;99.90
23715;DHT22;12036;50.858;4.472;2023-11-19T07:37:57;11.90;99.90
23715;DHT22;12036;50.858;4.472;2023-11-19T07:40:23;11.80;99.90
23715;DHT22;12036;50.858;4.472;2023-11-19T07:42:49;11.80;99.90
23715;DHT22;12036;50.858;4.472;2023-11-19T07:45:15;11.90;99.90
23715;DHT22;12036;50.858;4.472;2023-11-19T07:47:41;11.90;99.90
23715;DHT22;12036;50.858;4.472;2023-11-19T07:50:06;11.90;99.90
23715;DHT22;12036;50.858;4.472;2023-11-19T07:52:32;11.80;99.90
23715;DHT22;12036;50.858;4.472;2023-11-19T07:54:58;11.90;99.90
23715;DHT22;12036;50.858;4.472;2023-11-19T07:57:24;11.90;99.90
23715;DHT22;12036;50.858;4.472;2023-11-19T07:59:50;11.90;99.90
23715;DHT22;12036;50.858;4.472;2023-11-19T08:02:15;12.00;99.90
23715;DHT22;12036;50.858;4.472;2023-11-19T08:04:41;12.10;99.90
23715;DHT22;12036;50.858;4.472;2023-11-19T08:07:10;12.10;99.90
23715;DHT22;12036;50.858;4.472;2023-11-19T08:09:36;12.00;99.90
23715;DHT22;12036;50.858;4.472;2023-11-19T08:12:03;11.90;99.90
23715;DHT22;12036;50.858;4.472;2023-11-19T08:14:29;12.10;99.90
23715;DHT22;12036;50.858;4.472;2023-11-19T08:16:54;12.10;99.90
23715;DHT22;12036;50.858;4.472;2023-11-19T08:19:20;12.20;99.90
23715;DHT22;12036;50.858;4.472;2023-11-19T08:21:46;12.20;99.90
23715;DHT22;12036;50.858;4.472;2023-11-19T08:24:11;12.20;99.90
23715;DHT22;12036;50.858;4.472;2023-11-19T08:26:37;12.20;99.90
23715;DHT22;12036;50.858;4.472;2023-11-19T08:29:03;12.30;99.90
23715;DHT22;12036;50.858;4.472;2023-11-19T08:31:28;12.30;99.90
23715;DHT22;12036;50.858;4.472;2023-11-19T08:33:54;12.20;99.90
23715;DHT22;12036;50.858;4.472;2023-11-19T08:36:20;12.40;99.90
23715;DHT22;12036;50.858;4.472;2023-11-19T08:38:46;12.30;99.90
23715;DHT22;12036;50.858;4.472;2023-11-19T08:41:12;12.30;99.90
23715;DHT22;12036;50.858;4.472;2023-11-19T08:43:38;12.40;99.90
23715;DHT22;12036;50.858;4.472;2023-11-19T08:46:09;12.40;99.90
23715;DHT22;12036;50.858;4.472;2023-11-19T08:48:35;12.40;99.90
23715;DHT22;12036;50.858;4.472;2023-11-19T08:51:01;12.40;99.90
23715;DHT22;12036;50.858;4.472;2023-11-19T08:53:26;12.50;99.90
23715;DHT22;12036;50.858;4.472;2023-11-19T08:55:52;12.50;99.90
23715;DHT22;12036;50.858;4.472;2023-11-19T08:58:18;12.40;99.90
23715;DHT22;12036;50.858;4.472;2023-11-19T09:00:43;12.20;99.90
23715;DHT22;12036;50.858;4.472;2023-11-19T09:03:09;12.10;99.90
23715;DHT22;12036;50.858;4.472;2023-11-19T09:05:35;12.00;99.90
23715;DHT22;12036;50.858;4.472;2023-11-19T09:08:00;12.00;99.90
23715;DHT22;12036;50.858;4.472;2023-11-19T09:10:26;12.00;99.90
23715;DHT22;12036;50.858;4.472;2023-11-19T09:12:52;12.10;99.90
23715;DHT22;12036;50.858;4.472;2023-11-19T09:15:18;12.20;99.90
23715;DHT22;12036;50.858;4.472;2023-11-19T09:17:44;12.10;99.90
23715;DHT22;12036;50.858;4.472;2023-11-19T09:20:11;12.20;99.90
23715;DHT22;12036;50.858;4.472;2023-11-19T09:22:40;12.20;99.90
23715;DHT22;12036;50.858;4.472;2023-11-19T09:25:06;12.10;99.90
23715;DHT22;12036;50.858;4.472;2023-11-19T09:27:31;12.00;99.90
23715;DHT22;12036;50.858;4.472;2023-11-19T09:29:57;11.90;99.90
23715;DHT22;12036;50.858;4.472;2023-11-19T09:32:24;12.00;99.90
23715;DHT22;12036;50.858;4.472;2023-11-19T09:34:50;12.00;99.90
23715;DHT22;12036;50.858;4.472;2023-11-19T09:37:15;12.00;99.90
23715;DHT22;12036;50.858;4.472;2023-11-19T09:39:42;12.10;99.90
23715;DHT22;12036;50.858;4.472;2023-11-19T09:42:09;12.20;99.90
23715;DHT22;12036;50.858;4.472;2023-11-19T09:44:38;12.30;99.90
23715;DHT22;12036;50.858;4.472;2023-11-19T09:47:05;12.40;99.90
23715;DHT22;12036;50.858;4.472;2023-11-19T09:49:31;12.40;99.90
23715;DHT22;12036;50.858;4.472;2023-11-19T09:51:57;12.40;99.90
23715;DHT22;12036;50.858;4.472;2023-11-19T09:54:22;12.60;99.90
23715;DHT22;12036;50.858;4.472;2023-11-19T09:56:48;12.60;99.90
23715;DHT22;12036;50.858;4.472;2023-11-19T09:59:15;12.70;99.90
23715;DHT22;12036;50.858;4.472;2023-11-19T10:01:41;12.80;99.90
23715;DHT22;12036;50.858;4.472;2023-11-19T10:04:09;12.80;99.90
23715;DHT22;12036;50.858;4.472;2023-11-19T10:06:35;12.90;99.90
23715;DHT22;12036;50.858;4.472;2023-11-19T10:09:01;12.90;99.90
23715;DHT22;12036;50.858;4.472;2023-11-19T10:11:27;12.90;99.90
23715;DHT22;12036;50.858;4.472;2023-11-19T10:13:53;13.10;99.90
23715;DHT22;12036;50.858;4.472;2023-11-19T10:16:19;13.10;99.90
23715;DHT22;12036;50.858;4.472;2023-11-19T10:18:49;13.10;99.90
23715;DHT22;12036;50.858;4.472;2023-11-19T10:21:19;13.20;99.90
23715;DHT22;12036;50.858;4.472;2023-11-19T10:23:55;13.20;99.90
23715;DHT22;12036;50.858;4.472;2023-11-19T10:26:26;13.00;99.90
23715;DHT22;12036;50.858;4.472;2023-11-19T10:28:51;13.20;99.90
23715;DHT22;12036;50.858;4.472;2023-11-19T10:31:18;13.20;99.90
23715;DHT22;12036;50.858;4.472;2023-11-19T10:33:45;13.10;99.90
23715;DHT22;12036;50.858;4.472;2023-11-19T10:36:12;13.40;99.90
23715;DHT22;12036;50.858;4.472;2023-11-19T10:38:38;13.50;99.90
23715;DHT22;12036;50.858;4.472;2023-11-19T10:41:04;13.50;99.90
23715;DHT22;12036;50.858;4.472;2023-11-19T10:43:31;13.60;99.90
23715;DHT22;12036;50.858;4.472;2023-11-19T10:46:10;13.70;99.90
23715;DHT22;12036;50.858;4.472;2023-11-19T10:48:36;13.70;99.90
23715;DHT22;12036;50.858;4.472;2023-11-19T10:51:05;13.70;99.90
23715;DHT22;12036;50.858;4.472;2023-11-19T10:53:36;13.70;99.90
23715;DHT22;12036;50.858;4.472;2023-11-19T10:56:06;13.60;99.90
23715;DHT22;12036;50.858;4.472;2023-11-19T10:58:35;13.70;99.90
23715;DHT22;12036;50.858;4.472;2023-11-19T11:01:09;13.60;99.90
23715;DHT22;12036;50.858;4.472;2023-11-19T11:03:40;13.70;99.90
23715;DHT22;12036;50.858;4.472;2023-11-19T11:06:06;13.70;99.90
23715;DHT22;12036;50.858;4.472;2023-11-19T11:08:32;13.70;99.90
23715;DHT22;12036;50.858;4.472;2023-11-19T11:11:02;13.60;99.90
23715;DHT22;12036;50.858;4.472;2023-11-19T11:13:30;13.60;99.90
23715;DHT22;12036;50.858;4.472;2023-11-19T11:15:57;13.70;99.90
23715;DHT22;12036;50.858;4.472;2023-11-19T11:18:26;14.10;99.90
23715;DHT22;12036;50.858;4.472;2023-11-19T11:21:07;14.30;99.90
23715;DHT22;12036;50.858;4.472;2023-11-19T11:24:07;13.90;99.90
23715;DHT22;12036;50.858;4.472;2023-11-19T11:29:37;13.70;99.90
23715;DHT22;12036;50.858;4.472;2023-11-19T11:34:53;13.40;99.90
23715;DHT22;12036;50.858;4.472;2023-11-19T11:37:34;13.50;99.90
23715;DHT22;12036;50.858;4.472;2023-11-19T11:40:02;13.50;99.90
23715;DHT22;12036;50.858;4.472;2023-11-19T11:42:36;13.60;99.90
23715;DHT22;12036;50.858;4.472;2023-11-19T11:50:20;13.70;99.90
23715;DHT22;12036;50.858;4.472;2023-11-19T11:55:35;13.60;99.90
23715;DHT22;12036;50.858;4.472;2023-11-19T11:58:07;13.60;99.90
23715;DHT22;12036;50.858;4.472;2023-11-19T12:00:36;13.70;99.90
23715;DHT22;12036;50.858;4.472;2023-11-19T12:03:07;13.70;99.90
23715;DHT22;12036;50.858;4.472;2023-11-19T12:05:35;13.80;99.90
23715;DHT22;12036;50.858;4.472;2023-11-19T12:08:04;13.90;99.90
23715;DHT22;12036;50.858;4.472;2023-11-19T12:10:37;14.20;99.90
23715;DHT22;12036;50.858;4.472;2023-11-19T12:13:06;14.40;99.90
23715;DHT22;12036;50.858;4.472;2023-11-19T12:15:32;14.20;99.90
23715;DHT22;12036;50.858;4.472;2023-11-19T12:17:58;14.30;99.90
23715;DHT22;12036;50.858;4.472;2023-11-19T12:20:26;14.20;99.90
23715;DHT22;12036;50.858;4.472;2023-11-19T12:22:53;14.20;99.90
23715;DHT22;12036;50.858;4.472;2023-11-19T12:25:19;14.10;99.90
23715;DHT22;12036;50.858;4.472;2023-11-19T12:27:50;14.00;99.90
23715;DHT22;12036;50.858;4.472;2023-11-19T12:30:25;13.80;99.90
23715;DHT22;12036;50.858;4.472;2023-11-19T12:32:52;13.50;99.90
23715;DHT22;12036;50.858;4.472;2023-11-19T12:35:22;13.20;99.90
23715;DHT22;12036;50.858;4.472;2023-11-19T12:37:49;13.10;99.90
23715;DHT22;12036;50.858;4.472;2023-11-19T12:40:18;13.20;99.90
23715;DHT22;12036;50.858;4.472;2023-11-19T12:42:45;13.30;99.90
23715;DHT22;12036;50.858;4.472;2023-11-19T12:45:11;13.30;99.90
23715;DHT22;12036;50.858;4.472;2023-11-19T12:47:38;13.30;99.90
23715;DHT22;12036;50.858;4.472;2023-11-19T12:50:05;13.40;99.90
23715;DHT22;12036;50.858;4.472;2023-11-19T12:52:30;13.20;99.90
23715;DHT22;12036;50.858;4.472;2023-11-19T12:54:56;13.30;99.90
23715;DHT22;12036;50.858;4.472;2023-11-19T12:57:36;13.10;99.90
23715;DHT22;12036;50.858;4.472;2023-11-19T13:00:02;13.20;99.90
23715;DHT22;12036;50.858;4.472;2023-11-19T13:02:51;13.10;99.90
23715;DHT22;12036;50.858;4.472;2023-11-19T13:05:35;13.20;99.90
23715;DHT22;12036;50.858;4.472;2023-11-19T13:08:03;13.40;99.90
23715;DHT22;12036;50.858;4.472;2023-11-19T13:10:33;13.30;99.90
23715;DHT22;12036;50.858;4.472;2023-11-19T13:13:09;13.40;99.90
23715;DHT22;12036;50.858;4.472;2023-11-19T13:15:35;13.50;99.90
23715;DHT22;12036;50.858;4.472;2023-11-19T13:18:01;13.50;99.90
23715;DHT22;12036;50.858;4.472;2023-11-19T13:20:28;13.50;99.90
23715;DHT22;12036;50.858;4.472;2023-11-19T13:23:02;13.50;99.90
23715;DHT22;12036;50.858;4.472;2023-11-19T13:25:29;13.50;99.90
23715;DHT22;12036;50.858;4.472;2023-11-19T13:27:55;13.50;99.90
23715;DHT22;12036;50.858;4.472;2023-11-19T13:30:21;13.50;99.90
23715;DHT22;12036;50.858;4.472;2023-11-19T13:32:50;13.60;99.90
23715;DHT22;12036;50.858;4.472;2023-11-19T13:35:17;13.40;99.90
23715;DHT22;12036;50.858;4.472;2023-11-19T13:37:43;13.50;99.90
23715;DHT22;12036;50.858;4.472;2023-11-19T13:40:10;13.60;99.90
23715;DHT22;12036;50.858;4.472;2023-11-19T13:42:38;13.60;99.90
23715;DHT22;12036;50.858;4.472;2023-11-19T13:45:13;13.60;99.90
23715;DHT22;12036;50.858;4.472;2023-11-19T13:47:41;13.60;99.90
23715;DHT22;12036;50.858;4.472;2023-11-19T13:50:11;13.40;99.90
23715;DHT22;12036;50.858;4.472;2023-11-19T13:52:38;13.40;99.90
23715;DHT22;12036;50.858;4.472;2023-11-19T13:55:06;13.30;99.90
23715;DHT22;12036;50.858;4.472;2023-11-19T13:57:32;13.40;99.90
23715;DHT22;12036;50.858;4.472;2023-11-19T13:59:59;13.30;99.90
23715;DHT22;12036;50.858;4.472;2023-11-19T14:02:25;13.30;99.90
23715;DHT22;12036;50.858;4.472;2023-11-19T14:04:50;13.20;99.90
23715;DHT22;12036;50.858;4.472;2023-11-19T14:07:16;13.20;99.90
23715;DHT22;12036;50.858;4.472;2023-11-19T14:09:42;13.20;99.90
23715;DHT22;12036;50.858;4.472;2023-11-19T14:12:08;13.20;99.90
23715;DHT22;12036;50.858;4.472;2023-11-19T14:14:35;13.20;99.90
23715;DHT22;12036;50.858;4.472;2023-11-19T14:17:02;13.30;99.90
23715;DHT22;12036;50.858;4.472;2023-11-19T14:19:28;13.30;99.90
23715;DHT22;12036;50.858;4.472;2023-11-19T14:21:54;13.20;99.90
23715;DHT22;12036;50.858;4.472;2023-11-19T14:24:20;13.20;99.90
23715;DHT22;12036;50.858;4.472;2023-11-19T14:26:46;13.20;99.90
23715;DHT22;12036;50.858;4.472;2023-11-19T14:29:12;13.20;99.90
23715;DHT22;12036;50.858;4.472;2023-11-19T14:31:38;13.20;99.90
23715;DHT22;12036;50.858;4.472;2023-11-19T14:34:05;13.10;99.90
23715;DHT22;12036;50.858;4.472;2023-11-19T14:36:31;13.00;99.90
23715;DHT22;12036;50.858;4.472;2023-11-19T14:38:56;12.90;99.90
23715;DHT22;12036;50.858;4.472;2023-11-19T14:41:24;12.80;99.90
23715;DHT22;12036;50.858;4.472;2023-11-19T14:43:49;12.70;99.90
23715;DHT22;12036;50.858;4.472;2023-11-19T14:46:15;12.60;99.90
23715;DHT22;12036;50.858;4.472;2023-11-19T14:48:41;12.50;99.90
23715;DHT22;12036;50.858;4.472;2023-11-19T14:51:06;12.50;99.90
23715;DHT22;12036;50.858;4.472;2023-11-19T14:53:32;12.40;99.90
23715;DHT22;12036;50.858;4.472;2023-11-19T14:55:58;12.40;99.90
23715;DHT22;12036;50.858;4.472;2023-11-19T14:58:24;12.50;99.90
23715;DHT22;12036;50.858;4.472;2023-11-19T15:00:51;12.50;99.90
23715;DHT22;12036;50.858;4.472;2023-11-19T15:03:17;12.50;99.90
23715;DHT22;12036;50.858;4.472;2023-11-19T15:05:45;12.50;99.90
23715;DHT22;12036;50.858;4.472;2023-11-19T15:08:11;12.50;99.90
23715;DHT22;12036;50.858;4.472;2023-11-19T15:10:37;12.60;99.90
23715;DHT22;12036;50.858;4.472;2023-11-19T15:13:03;12.70;99.90
23715;DHT22;12036;50.858;4.472;2023-11-19T15:15:29;12.70;99.90
23715;DHT22;12036;50.858;4.472;2023-11-19T15:17:55;12.60;99.90
23715;DHT22;12036;50.858;4.472;2023-11-19T15:20:21;12.60;99.90
23715;DHT22;12036;50.858;4.472;2023-11-19T15:22:47;12.60;99.90
23715;DHT22;12036;50.858;4.472;2023-11-19T15:25:13;12.60;99.90
23715;DHT22;12036;50.858;4.472;2023-11-19T15:27:38;12.60;99.90
23715;DHT22;12036;50.858;4.472;2023-11-19T15:30:05;12.50;99.90
23715;DHT22;12036;50.858;4.472;2023-11-19T15:32:31;12.50;99.90
23715;DHT22;12036;50.858;4.472;2023-11-19T15:35:00;12.60;99.90
23715;DHT22;12036;50.858;4.472;2023-11-19T15:37:25;12.60;99.90
23715;DHT22;12036;50.858;4.472;2023-11-19T15:39:51;12.70;99.90
23715;DHT22;12036;50.858;4.472;2023-11-19T15:42:17;12.90;99.90